createdAt,value
2023-03-10T00:01:25.624Z,1.5
2023-03-10T00:04:27.604Z,1.9
2023-03-10T00:07:29.536Z,1.4
2023-03-10T00:10:31.488Z,1.6
2023-03-10T00:13:33.455Z,2
2023-03-10T00:16:35.416Z,1.7
2023-03-10T00:19:37.385Z,1.1
2023-03-10T00:22:39.357Z,1.1
2023-03-10T00:25:41.319Z,0.8
2023-03-10T00:28:43.288Z,1.3
2023-03-10T00:31:45.262Z,1.2
2023-03-10T00:34:47.219Z,0.9
2023-03-10T00:37:49.188Z,0.6
2023-03-10T00:40:51.148Z,0.6
2023-03-10T00:43:53.141Z,0.6
2023-03-10T00:46:55.089Z,0.8
2023-03-10T00:49:57.024Z,0.6
2023-03-10T00:52:58.992Z,0.5
2023-03-10T00:56:00.964Z,0.6
2023-03-10T00:59:02.900Z,0.4
2023-03-10T01:02:04.976Z,0.5
2023-03-10T01:05:06.829Z,0.7
2023-03-10T01:08:08.780Z,0.5
2023-03-10T01:11:10.748Z,0.6
2023-03-10T01:14:12.714Z,0.5
2023-03-10T01:17:14.686Z,0.7
2023-03-10T01:20:16.627Z,0.6
2023-03-10T01:23:18.593Z,0.6
2023-03-10T01:26:20.556Z,0.6
2023-03-10T01:29:22.502Z,0.9
2023-03-10T01:32:24.529Z,0.8
2023-03-10T01:35:26.448Z,1.1
2023-03-10T01:38:28.402Z,1
2023-03-10T01:41:30.370Z,0.7
2023-03-10T01:44:32.340Z,0.6
2023-03-10T01:47:34.319Z,0.5
2023-03-10T01:50:36.242Z,0.4
2023-03-10T01:53:38.217Z,0.6
2023-03-10T01:56:40.166Z,0.8
2023-03-10T01:59:42.135Z,0.4
2023-03-10T02:02:44.126Z,0.5
2023-03-10T02:05:46.099Z,0.4
2023-03-10T02:08:48.082Z,0.5
2023-03-10T02:11:50.012Z,0.3
2023-03-10T02:14:51.971Z,0.3
2023-03-10T02:17:54.016Z,0.5
2023-03-10T02:20:55.887Z,0.6
2023-03-10T02:24:01.214Z,0.3
2023-03-10T02:26:59.839Z,0.4
2023-03-10T02:30:01.845Z,0.3
2023-03-10T02:33:03.807Z,0.4
2023-03-10T02:36:05.827Z,0.5
2023-03-10T02:39:07.731Z,0.4
2023-03-10T02:42:09.709Z,0.3
2023-03-10T02:45:11.665Z,0.5
2023-03-10T02:48:13.638Z,0.3
2023-03-10T02:51:15.597Z,0.4
2023-03-10T02:54:17.541Z,0.6
2023-03-10T02:57:19.527Z,0.5
2023-03-10T03:00:21.601Z,0.5
2023-03-10T03:03:23.508Z,0.4
2023-03-10T03:06:25.392Z,0.3
2023-03-10T03:09:27.360Z,0.4
2023-03-10T03:12:29.318Z,0.5
2023-03-10T03:15:31.274Z,0.5
2023-03-10T03:18:33.284Z,0.5
2023-03-10T03:21:35.269Z,0.5
2023-03-10T03:24:37.230Z,0.6
2023-03-10T03:27:39.195Z,0.8
2023-03-10T03:30:41.168Z,0.9
2023-03-10T03:33:43.160Z,0.6
2023-03-10T03:36:45.071Z,0.5
2023-03-10T03:39:47.090Z,0.6
2023-03-10T03:42:49.010Z,0.7
2023-03-10T03:45:50.982Z,0.9
2023-03-10T03:48:52.942Z,0.9
2023-03-10T03:51:54.889Z,0.5
2023-03-10T03:54:56.850Z,0.5
2023-03-10T03:57:58.826Z,0.6
2023-03-10T04:01:00.790Z,0.6
2023-03-10T04:04:02.753Z,0.7
2023-03-10T04:07:04.715Z,0.7
2023-03-10T04:10:06.687Z,0.6
2023-03-10T04:13:08.624Z,0.6
2023-03-10T04:16:10.593Z,0.5
2023-03-10T04:19:12.571Z,0.8
2023-03-10T04:22:14.547Z,0.7
2023-03-10T04:25:16.514Z,0.6
2023-03-10T04:28:18.498Z,0.8
2023-03-10T04:31:20.516Z,0.4
2023-03-10T04:34:22.397Z,0.7
2023-03-10T04:37:24.360Z,1
2023-03-10T04:40:26.369Z,0.6
2023-03-10T04:43:28.301Z,0.4
2023-03-10T04:46:30.289Z,0.7
2023-03-10T04:49:32.215Z,1
2023-03-10T04:52:34.178Z,0.7
2023-03-10T04:55:36.176Z,0.8
2023-03-10T04:58:38.125Z,0.9
2023-03-10T05:01:40.210Z,0.7
2023-03-10T05:04:42.200Z,0.9
2023-03-10T05:07:43.994Z,0.9
2023-03-10T05:10:45.958Z,0.8
2023-03-10T05:13:47.955Z,0.8
2023-03-10T05:16:49.961Z,1
2023-03-10T05:19:51.910Z,0.9
2023-03-10T05:22:53.865Z,0.8
2023-03-10T05:25:55.822Z,0.8
2023-03-10T05:28:57.791Z,0.9
2023-03-10T05:31:59.762Z,0.6
2023-03-10T05:35:01.709Z,0.7
2023-03-10T05:38:03.656Z,0.7
2023-03-10T05:41:05.613Z,0.7
2023-03-10T05:44:07.619Z,0.8
2023-03-10T05:47:09.577Z,1
2023-03-10T05:50:11.535Z,0.9
2023-03-10T05:53:13.492Z,0.8
2023-03-10T05:56:15.450Z,1.1
2023-03-10T05:59:17.412Z,1
2023-03-10T06:02:19.393Z,0.9
2023-03-10T06:05:21.352Z,0.8
2023-03-10T06:08:23.450Z,0.9
2023-03-10T06:11:25.259Z,1.1
2023-03-10T06:14:27.224Z,1.1
2023-03-10T06:17:29.276Z,1
2023-03-10T06:20:31.188Z,0.9
2023-03-10T06:23:33.119Z,1.3
2023-03-10T06:26:35.156Z,1.2
2023-03-10T06:29:37.098Z,1.1
2023-03-10T06:32:39.077Z,1.4
2023-03-10T06:35:41.093Z,1.1
2023-03-10T06:38:43.003Z,1
2023-03-10T06:41:44.964Z,1.5
2023-03-10T06:44:49.165Z,1
2023-03-10T06:47:48.923Z,1.1
2023-03-10T06:50:50.887Z,0.9
2023-03-10T06:53:52.834Z,1.4
2023-03-10T06:56:54.827Z,1.3
2023-03-10T06:59:56.762Z,1.5
2023-03-10T07:02:58.750Z,1
2023-03-10T07:06:00.706Z,1.2
2023-03-10T07:09:02.646Z,1.1
2023-03-10T07:12:04.638Z,1.2
2023-03-10T07:15:06.566Z,1.2
2023-03-10T07:18:08.550Z,1.3
2023-03-10T07:21:10.505Z,2.1
2023-03-10T07:24:12.494Z,1.2
2023-03-10T07:27:14.448Z,1.5
2023-03-10T07:30:16.415Z,1.3
2023-03-10T07:33:18.370Z,1.5
2023-03-10T07:36:20.409Z,1.3
2023-03-10T07:39:22.298Z,1.4
2023-03-10T07:42:24.266Z,1.6
2023-03-10T07:45:26.229Z,1.6
2023-03-10T07:48:28.318Z,1.4
2023-03-10T07:51:30.218Z,1.4
2023-03-10T07:54:32.173Z,1.7
2023-03-10T07:57:34.144Z,1.4
2023-03-10T08:00:36.120Z,1.3
2023-03-10T08:03:38.240Z,1.3
2023-03-10T08:06:40.200Z,1.3
2023-03-10T08:09:41.997Z,1.3
2023-03-10T08:12:43.953Z,1.2
2023-03-10T08:15:45.958Z,1.6
2023-03-10T08:18:47.906Z,1.7
2023-03-10T08:21:49.886Z,1.5
2023-03-10T08:24:52.001Z,1.4
2023-03-10T08:27:53.824Z,2
2023-03-10T08:31:03.958Z,1.9
2023-03-10T08:33:57.754Z,2.2
2023-03-10T08:36:59.739Z,1.3
2023-03-10T08:40:01.707Z,1.4
2023-03-10T08:43:03.664Z,1.5
2023-03-10T08:46:08.055Z,1.1
2023-03-10T08:49:07.635Z,1.1
2023-03-10T08:52:09.598Z,1.8
2023-03-10T08:55:11.554Z,1.2
2023-03-10T08:58:13.529Z,1.1
2023-03-10T09:01:15.477Z,1.1
2023-03-10T09:04:17.453Z,1.2
2023-03-10T09:07:19.404Z,0.9
2023-03-10T09:10:21.372Z,0.9
2023-03-10T09:13:23.362Z,0.9
2023-03-10T09:16:25.407Z,0.9
2023-03-10T09:19:27.304Z,0.8
2023-03-10T09:22:29.234Z,0.7
2023-03-10T09:25:31.208Z,1.3
2023-03-10T09:28:33.151Z,0.9
2023-03-10T09:31:35.272Z,0.8
2023-03-10T09:34:37.145Z,0.8
2023-03-10T09:37:39.086Z,0.8
2023-03-10T09:40:41.072Z,0.8
2023-03-10T09:43:43.045Z,1.2
2023-03-10T09:46:45.008Z,1
2023-03-10T09:49:47.050Z,0.9
2023-03-10T09:52:49.027Z,1.1
2023-03-10T09:55:50.984Z,1.1
2023-03-10T09:58:52.981Z,1.2
2023-03-10T10:01:54.960Z,1.1
2023-03-10T10:04:57.013Z,1.2
2023-03-10T10:07:58.935Z,1.2
2023-03-10T10:11:00.881Z,1
2023-03-10T10:14:02.993Z,1.5
2023-03-10T10:17:05.006Z,1
2023-03-10T10:20:06.976Z,1.2
2023-03-10T10:23:08.944Z,1.2
2023-03-10T10:26:10.970Z,1
2023-03-10T10:29:12.944Z,1.3
2023-03-10T10:32:15.021Z,1
2023-03-10T10:35:17.033Z,1.2
2023-03-10T10:38:18.991Z,0.9
2023-03-10T10:41:20.947Z,1
2023-03-10T10:44:22.928Z,1.2
2023-03-10T10:47:24.894Z,0.9
2023-03-10T10:50:26.989Z,0.8
2023-03-10T10:53:28.813Z,0.8
2023-03-10T10:56:30.841Z,0.8
2023-03-10T10:59:32.832Z,0.6
2023-03-10T11:02:34.838Z,0.7
2023-03-10T11:05:36.944Z,0.9
2023-03-10T11:08:38.881Z,0.7
2023-03-10T11:11:40.836Z,0.6
2023-03-10T11:14:42.840Z,0.7
2023-03-10T11:17:44.887Z,0.6
2023-03-10T11:20:46.855Z,0.7
2023-03-10T11:23:51.876Z,0.7
2023-03-10T11:26:53.829Z,0.6
2023-03-10T11:29:55.814Z,0.8
2023-03-10T11:33:00.554Z,0.5
2023-03-10T11:36:02.640Z,0.7
2023-03-10T11:39:04.642Z,0.4
2023-03-10T11:42:06.627Z,0.5
2023-03-10T11:45:08.672Z,0.5
2023-03-10T11:48:10.653Z,0.4
2023-03-10T11:51:12.705Z,0.4
2023-03-10T11:54:14.710Z,0.5
2023-03-10T11:57:16.735Z,0.5
2023-03-10T12:00:21.611Z,0.6
2023-03-10T12:03:23.598Z,0.5
2023-03-10T12:06:26.576Z,0.6
2023-03-10T12:09:27.521Z,0.6
2023-03-10T12:12:29.498Z,0.7
2023-03-10T12:15:31.486Z,0.7
2023-03-10T12:18:33.456Z,0.4
2023-03-10T12:21:35.457Z,0.5
2023-03-10T12:24:37.536Z,0.4
2023-03-10T12:27:39.559Z,0.5
2023-03-10T12:30:41.537Z,0.6
2023-03-10T12:33:43.519Z,0.4
2023-03-10T12:36:45.476Z,0.3
2023-03-10T12:39:47.543Z,0.4
2023-03-10T12:42:49.668Z,0.4
2023-03-10T12:45:51.802Z,0.4
2023-03-10T12:48:53.783Z,0.5
2023-03-10T12:51:55.756Z,0.4
2023-03-10T12:54:57.695Z,0.4
2023-03-10T12:57:59.659Z,0.6
2023-03-10T13:01:01.742Z,0.5
2023-03-10T13:04:03.762Z,1
2023-03-10T13:07:05.793Z,0.6
2023-03-10T13:10:07.829Z,0.8
2023-03-10T13:13:09.824Z,0.7
2023-03-10T13:16:12.313Z,0.7
2023-03-10T13:19:13.894Z,0.5
2023-03-10T13:22:15.899Z,0.9
2023-03-10T13:25:17.870Z,0.7
2023-03-10T13:28:19.938Z,0.9
2023-03-10T13:31:21.889Z,1.2
2023-03-10T13:34:23.846Z,0.7
2023-03-10T13:37:25.882Z,0.4
2023-03-10T13:40:30.463Z,0.6
2023-03-10T13:43:29.985Z,0.7
2023-03-10T13:46:31.967Z,1.4
2023-03-10T13:49:33.939Z,0.6
2023-03-10T13:52:35.921Z,0.8
2023-03-10T13:55:38.031Z,0.5
2023-03-10T13:58:40.081Z,1
2023-03-10T14:01:42.132Z,0.8
2023-03-10T14:04:44.036Z,0.6
2023-03-10T14:07:46.035Z,0.6
2023-03-10T14:10:48.236Z,0.6
2023-03-10T14:13:50.253Z,0.5
2023-03-10T14:16:52.512Z,0.4
2023-03-10T14:19:54.385Z,0.5
2023-03-10T14:22:56.371Z,0.4
2023-03-10T14:25:58.398Z,0.6
2023-03-10T14:29:00.473Z,0.5
2023-03-10T14:32:02.577Z,0.4
2023-03-10T14:35:04.747Z,0.5
2023-03-10T14:38:06.960Z,0.5
2023-03-10T14:41:08.905Z,0.6
2023-03-10T14:44:10.867Z,0.6
2023-03-10T14:47:13.067Z,0.6
2023-03-10T14:50:14.854Z,0.6
2023-03-10T14:53:17.019Z,0.6
2023-03-10T14:56:18.996Z,0.5
2023-03-10T14:59:21.050Z,0.4
2023-03-10T15:02:22.997Z,0.5
2023-03-10T15:05:29.785Z,0.3
2023-03-10T15:08:29.320Z,0.5
2023-03-10T15:11:36.759Z,0.5
2023-03-10T15:14:30.871Z,0.4
2023-03-10T15:17:32.896Z,0.2
2023-03-10T15:20:34.816Z,0.6
2023-03-10T15:23:36.779Z,0.4
2023-03-10T15:26:38.758Z,0.2
2023-03-10T15:29:40.781Z,0.2
2023-03-10T15:32:42.820Z,0.2
2023-03-10T15:35:44.813Z,0.2
2023-03-10T15:38:46.727Z,0.3
2023-03-10T15:41:48.727Z,0.2
2023-03-10T15:44:50.681Z,0.2
2023-03-10T15:47:52.668Z,0.3
2023-03-10T15:50:54.622Z,0.2
2023-03-10T15:53:56.627Z,0.2
2023-03-10T15:56:58.572Z,0.2
2023-03-10T16:00:00.543Z,0.3
2023-03-10T16:03:02.522Z,0.3
2023-03-10T16:06:04.492Z,0.2
2023-03-10T16:09:08.951Z,0.2
2023-03-10T16:12:08.409Z,0.2
2023-03-10T16:15:10.417Z,0.1
2023-03-10T16:18:12.391Z,0.3
2023-03-10T16:21:16.200Z,0.2
2023-03-10T16:24:16.272Z,0.2
2023-03-10T16:27:18.238Z,0.2
2023-03-10T16:30:20.369Z,0.2
2023-03-10T16:33:22.163Z,0.2
2023-03-10T16:36:24.142Z,0.3
2023-03-10T16:39:26.083Z,0.3
2023-03-10T16:42:28.062Z,0.5
2023-03-10T16:45:30.075Z,0.4
2023-03-10T16:48:32.019Z,0.3
2023-03-10T16:51:34.006Z,0.6
2023-03-10T16:54:35.944Z,0.4
2023-03-10T16:57:37.910Z,0.4
2023-03-10T17:00:39.911Z,0.5
2023-03-10T17:03:41.989Z,0.4
2023-03-10T17:06:43.803Z,0.4
2023-03-10T17:09:45.788Z,0.4
2023-03-10T17:12:47.738Z,0.5
2023-03-10T17:15:49.711Z,0.5
2023-03-10T17:18:51.683Z,0.6
2023-03-10T17:21:53.638Z,0.5
2023-03-10T17:24:55.613Z,0.6
2023-03-10T17:27:57.593Z,0.5
2023-03-10T17:30:59.533Z,0.5
2023-03-10T17:34:01.505Z,0.4
2023-03-10T17:37:03.463Z,0.4
2023-03-10T17:40:05.578Z,0.3
2023-03-10T17:43:17.507Z,0.4
2023-03-10T17:46:09.539Z,0.6
2023-03-10T17:49:11.520Z,0.3
2023-03-10T17:52:13.450Z,0.5
2023-03-10T17:55:15.435Z,0.4
2023-03-10T17:58:17.395Z,0.5
2023-03-10T18:01:19.354Z,0.5
2023-03-10T18:04:21.327Z,0.5
2023-03-10T18:07:23.323Z,0.5
2023-03-10T18:10:25.443Z,0.4
2023-03-10T18:13:27.262Z,0.4
2023-03-10T18:16:29.243Z,0.4
2023-03-10T18:19:31.193Z,0.4
2023-03-10T18:22:33.193Z,0.4
2023-03-10T18:25:35.155Z,0.4
2023-03-10T18:28:37.102Z,0.5
2023-03-10T18:31:39.062Z,0.4
2023-03-10T18:34:41.046Z,0.4
2023-03-10T18:37:42.996Z,0.3
2023-03-10T18:40:44.956Z,0.4
2023-03-10T18:43:46.922Z,0.4
2023-03-10T18:46:48.995Z,0.4
2023-03-10T18:49:50.897Z,0.4
2023-03-10T18:52:52.870Z,0.4
2023-03-10T18:55:55.004Z,0.4
2023-03-10T18:58:56.795Z,0.5
2023-03-10T19:01:58.798Z,0.5
2023-03-10T19:05:00.726Z,0.5
2023-03-10T19:08:02.712Z,0.7
2023-03-10T19:11:04.651Z,0.8
2023-03-10T19:14:06.624Z,0.7
2023-03-10T19:17:08.567Z,0.7
2023-03-10T19:20:10.567Z,0.7
2023-03-10T19:23:12.593Z,0.8
2023-03-10T19:26:14.589Z,0.8
2023-03-10T19:29:16.559Z,0.9
2023-03-10T19:32:18.545Z,0.9
2023-03-10T19:35:20.470Z,1.2
2023-03-10T19:38:22.440Z,1.4
2023-03-10T19:41:24.412Z,1.2
2023-03-10T19:44:26.369Z,1.3
2023-03-10T19:47:28.354Z,1.4
2023-03-10T19:50:30.354Z,1.7
2023-03-10T19:53:32.309Z,1.6
2023-03-10T19:56:34.256Z,1.6
2023-03-10T19:59:36.383Z,2
2023-03-10T20:02:38.173Z,2.1
2023-03-10T20:05:40.141Z,2
2023-03-10T20:08:42.100Z,3
2023-03-10T20:11:44.066Z,2.7
2023-03-10T20:14:46.066Z,2.7
2023-03-10T20:17:47.985Z,3
2023-03-10T20:20:49.954Z,2.7
2023-03-10T20:23:52.520Z,2.7
2023-03-10T20:26:53.893Z,2.6
2023-03-10T20:29:55.866Z,2.7
2023-03-10T20:32:57.817Z,2.2
2023-03-10T20:35:59.874Z,2.4
2023-03-10T20:39:01.738Z,2.4
2023-03-10T20:42:03.700Z,2.8
2023-03-10T20:45:05.648Z,2.3
2023-03-10T20:48:07.645Z,2.6
2023-03-10T20:51:09.603Z,2.7
2023-03-10T20:54:11.548Z,2.5
2023-03-10T20:57:13.671Z,2.7
2023-03-10T21:00:15.468Z,2.5
2023-03-10T21:03:17.442Z,2.5
2023-03-10T21:06:19.423Z,2.8
2023-03-10T21:09:21.402Z,2.5
2023-03-10T21:12:23.347Z,2.2
2023-03-10T21:15:25.324Z,2.3
2023-03-10T21:18:27.285Z,2.2
2023-03-10T21:21:29.240Z,2.2
2023-03-10T21:24:31.215Z,2.2
2023-03-10T21:27:33.182Z,2.2
2023-03-10T21:30:35.203Z,2.1
2023-03-10T21:33:37.139Z,1.8
2023-03-10T21:36:39.111Z,1.9
2023-03-10T21:39:41.066Z,1.8
2023-03-10T21:42:43.005Z,2.3
2023-03-10T21:45:44.972Z,1.8
2023-03-10T21:48:46.952Z,1.6
2023-03-10T21:51:48.895Z,1.7
2023-03-10T21:54:50.869Z,1.7
2023-03-10T21:57:52.864Z,1.9
2023-03-10T22:00:56.226Z,1.6
2023-03-10T22:03:56.746Z,1.6
2023-03-10T22:06:58.694Z,1.4
2023-03-10T22:10:00.689Z,1.6
2023-03-10T22:13:02.674Z,1.4
2023-03-10T22:16:04.624Z,1.5
2023-03-10T22:19:06.592Z,1.3
2023-03-10T22:22:08.569Z,1.1
2023-03-10T22:25:10.491Z,1.4
2023-03-10T22:28:12.519Z,1.3
2023-03-10T22:31:14.543Z,1.3
2023-03-10T22:34:16.428Z,1.3
2023-03-10T22:37:18.398Z,1.4
2023-03-10T22:40:20.338Z,1.2
2023-03-10T22:43:22.299Z,1.2
2023-03-10T22:46:24.276Z,1.1
2023-03-10T22:49:26.225Z,1.3
2023-03-10T22:52:28.217Z,1.2
2023-03-10T22:55:30.148Z,1.3
2023-03-10T22:58:32.133Z,1.9
2023-03-10T23:01:34.214Z,1.3
2023-03-10T23:04:36.072Z,1.3
2023-03-10T23:07:38.036Z,1.3
2023-03-10T23:10:39.990Z,1.3
2023-03-10T23:13:41.966Z,1.2
2023-03-10T23:16:43.918Z,1.3
2023-03-10T23:19:45.888Z,1.4
2023-03-10T23:22:47.853Z,1.5
2023-03-10T23:25:49.793Z,1.6
2023-03-10T23:28:51.818Z,1.3
2023-03-10T23:31:53.802Z,1.2
2023-03-10T23:34:55.714Z,1.5
2023-03-10T23:37:57.715Z,1.2
2023-03-10T23:40:59.670Z,1.2
2023-03-10T23:44:01.632Z,1.2
2023-03-10T23:47:03.592Z,1.3
2023-03-10T23:50:05.553Z,1.1
2023-03-10T23:53:07.534Z,1.2
2023-03-10T23:56:09.487Z,1.2
2023-03-10T23:59:11.460Z,1.3
